createdAt,value
2023-04-15T00:00:40.711Z,99856.05
2023-04-15T00:03:17.279Z,99860.40
2023-04-15T00:05:46.114Z,99855.55
2023-04-15T00:08:14.881Z,99858.05
2023-04-15T00:10:45.914Z,99862.30
2023-04-15T00:13:14.728Z,99861.94
2023-04-15T00:15:43.089Z,99862.80
2023-04-15T00:18:11.427Z,99861.57
2023-04-15T00:20:40.082Z,99862.52
2023-04-15T00:23:08.335Z,99860.90
2023-04-15T00:25:36.694Z,99855.17
2023-04-15T00:28:05.359Z,99854.91
2023-04-15T00:30:33.706Z,99851.84
2023-04-15T00:33:03.146Z,99853.71
2023-04-15T00:35:32.275Z,99851.23
2023-04-15T00:38:00.817Z,99852.78
2023-04-15T00:40:29.055Z,99860.80
2023-04-15T00:42:57.379Z,99854.77
2023-04-15T00:45:26.934Z,99850.99
2023-04-15T00:47:55.509Z,99852.31
2023-04-15T00:50:24.248Z,99852.28
2023-04-15T00:52:52.607Z,99847.71
2023-04-15T00:55:21.284Z,99849.27
2023-04-15T00:57:49.639Z,99851.75
2023-04-15T01:00:19.601Z,99848.77
2023-04-15T01:02:48.111Z,99850.66
2023-04-15T01:05:18.900Z,99847.56
2023-04-15T01:07:47.499Z,99847.41
2023-04-15T01:10:16.497Z,99849.60
2023-04-15T01:12:45.252Z,99850.50
2023-04-15T01:15:14.234Z,99849.96
2023-04-15T01:17:43.020Z,99849.67
2023-04-15T01:20:12.313Z,99846.02
2023-04-15T01:22:41.562Z,99846.55
2023-04-15T01:25:14.669Z,99848.24
2023-04-15T01:27:43.168Z,99848.38
2023-04-15T01:30:12.128Z,99845.69
2023-04-15T01:32:40.452Z,99847.68
2023-04-15T01:35:10.065Z,99846.12
2023-04-15T01:37:38.678Z,99845.83
2023-04-15T01:40:09.383Z,99845.59
2023-04-15T01:42:38.097Z,99845.97
2023-04-15T01:45:08.614Z,99844.91
2023-04-15T01:47:37.133Z,99843.29
2023-04-15T01:50:07.874Z,99846.89
2023-04-15T01:52:36.119Z,99844.79
2023-04-15T01:55:05.725Z,99846.02
2023-04-15T01:57:34.405Z,99849.38
2023-04-15T02:00:04.082Z,99849.34
2023-04-15T02:02:32.654Z,99845.70
2023-04-15T02:05:01.171Z,99847.93
2023-04-15T02:07:31.718Z,99845.27
2023-04-15T02:10:00.013Z,99843.17
2023-04-15T02:12:28.537Z,99839.59
2023-04-15T02:14:56.832Z,99837.06
2023-04-15T02:17:25.541Z,99834.35
2023-04-15T02:19:54.725Z,99835.54
2023-04-15T02:22:23.016Z,99834.59
2023-04-15T02:24:51.250Z,99832.52
2023-04-15T02:27:19.709Z,99839.64
2023-04-15T02:29:50.709Z,99840.09
2023-04-15T02:32:19.642Z,99836.53
2023-04-15T02:34:47.888Z,99838.10
2023-04-15T02:37:16.553Z,99837.57
2023-04-15T02:39:45.042Z,99836.16
2023-04-15T02:42:13.462Z,99836.11
2023-04-15T02:44:41.751Z,99831.83
2023-04-15T02:47:11.116Z,99836.45
2023-04-15T02:49:39.683Z,99837.11
2023-04-15T02:52:08.045Z,99832.56
2023-04-15T02:54:36.512Z,99834.52
2023-04-15T02:57:06.264Z,99836.58
2023-04-15T02:59:34.611Z,99831.77
2023-04-15T03:02:58.024Z,99830.79
2023-04-15T03:05:39.457Z,99832.81
2023-04-15T03:08:08.007Z,99834.42
2023-04-15T03:10:36.521Z,99832.73
2023-04-15T03:13:05.053Z,99828.31
2023-04-15T03:15:34.126Z,99828.73
2023-04-15T03:18:02.783Z,99829.38
2023-04-15T03:20:31.694Z,99836.19
2023-04-15T03:23:00.373Z,99831.80
2023-04-15T03:25:29.168Z,99830.47
2023-04-15T03:27:58.089Z,99831.59
2023-04-15T03:30:26.614Z,99828.52
2023-04-15T03:32:55.298Z,99829.92
2023-04-15T03:35:23.842Z,99830.00
2023-04-15T03:37:52.385Z,99832.85
2023-04-15T03:40:21.986Z,99826.90
2023-04-15T03:42:50.927Z,99831.05
2023-04-15T03:45:19.233Z,99832.13
2023-04-15T03:47:49.159Z,99836.83
2023-04-15T03:50:17.590Z,99836.13
2023-04-15T03:52:46.244Z,99834.10
2023-04-15T03:55:14.862Z,99837.04
2023-04-15T03:57:43.210Z,99840.59
2023-04-15T04:00:12.455Z,99839.05
2023-04-15T04:02:40.772Z,99844.35
2023-04-15T04:05:10.112Z,99839.30
2023-04-15T04:07:38.371Z,99842.91
2023-04-15T04:10:08.629Z,99839.98
2023-04-15T04:12:37.038Z,99843.77
2023-04-15T04:15:07.548Z,99842.50
2023-04-15T04:17:36.174Z,99849.20
2023-04-15T04:20:06.859Z,99846.67
2023-04-15T04:22:39.486Z,99846.20
2023-04-15T04:25:10.604Z,99843.69
2023-04-15T04:27:38.968Z,99842.11
2023-04-15T04:30:09.695Z,99841.44
2023-04-15T04:32:38.383Z,99844.48
2023-04-15T04:35:07.642Z,99848.77
2023-04-15T04:37:36.396Z,99844.81
2023-04-15T04:40:07.474Z,99847.52
2023-04-15T04:42:38.524Z,99845.91
2023-04-15T04:45:10.122Z,99846.08
2023-04-15T04:47:38.892Z,99845.91
2023-04-15T04:50:09.739Z,99846.92
2023-04-15T04:52:38.044Z,99844.34
2023-04-15T04:55:07.939Z,99844.29
2023-04-15T04:57:37.116Z,99842.10
2023-04-15T05:00:08.565Z,99843.41
2023-04-15T05:02:37.071Z,99842.88
2023-04-15T05:05:07.340Z,99843.58
2023-04-15T05:07:35.718Z,99844.91
2023-04-15T05:10:05.594Z,99842.72
2023-04-15T05:12:33.883Z,99847.96
2023-04-15T05:15:02.438Z,99846.36
2023-04-15T05:17:32.692Z,99847.72
2023-04-15T05:20:01.108Z,99846.93
2023-04-15T05:22:30.241Z,99850.48
2023-04-15T05:24:58.730Z,99850.70
2023-04-15T05:27:27.030Z,99849.91
2023-04-15T05:29:56.142Z,99850.45
2023-04-15T05:32:24.422Z,99846.67
2023-04-15T05:34:52.827Z,99847.21
2023-04-15T05:37:21.786Z,99850.48
2023-04-15T05:39:50.099Z,99853.08
2023-04-15T05:42:18.484Z,99849.55
2023-04-15T05:44:46.852Z,99853.13
2023-04-15T05:47:15.354Z,99858.91
2023-04-15T05:49:43.613Z,99861.60
2023-04-15T05:52:11.930Z,99859.45
2023-04-15T05:54:40.738Z,99860.80
2023-04-15T05:57:09.013Z,99858.87
2023-04-15T05:59:38.330Z,99862.67
2023-04-15T06:02:07.120Z,99862.21
2023-04-15T06:04:36.439Z,99862.46
2023-04-15T06:07:04.856Z,99863.41
2023-04-15T06:09:33.438Z,99864.41
2023-04-15T06:12:02.495Z,99862.52
2023-04-15T06:14:30.882Z,99859.84
2023-04-15T06:16:59.589Z,99864.75
2023-04-15T06:19:28.928Z,99869.52
2023-04-15T06:21:57.450Z,99872.21
2023-04-15T06:24:25.924Z,99877.92
2023-04-15T06:26:54.384Z,99872.14
2023-04-15T06:29:22.873Z,99873.41
2023-04-15T06:31:51.692Z,99873.74
2023-04-15T06:34:20.077Z,99878.16
2023-04-15T06:36:48.469Z,99878.39
2023-04-15T06:39:16.782Z,99879.17
2023-04-15T06:41:45.035Z,99880.39
2023-04-15T06:44:13.439Z,99882.46
2023-04-15T06:46:42.187Z,99883.25
2023-04-15T06:49:10.813Z,99881.92
2023-04-15T06:51:39.175Z,99886.96
2023-04-15T06:54:07.719Z,99888.31
2023-04-15T06:56:36.382Z,99892.66
2023-04-15T06:59:04.939Z,99893.39
2023-04-15T07:01:33.648Z,99893.51
2023-04-15T07:04:01.955Z,99895.79
2023-04-15T07:06:30.188Z,99899.59
2023-04-15T07:08:58.827Z,99900.83
2023-04-15T07:11:27.379Z,99901.84
2023-04-15T07:13:55.934Z,99900.27
2023-04-15T07:16:24.360Z,99904.48
2023-04-15T07:18:52.873Z,99905.09
2023-04-15T07:21:21.257Z,99908.52
2023-04-15T07:23:49.941Z,99907.98
2023-04-15T07:26:18.356Z,99906.25
2023-04-15T07:28:46.836Z,99905.42
2023-04-15T07:31:16.376Z,99908.85
2023-04-15T07:33:44.913Z,99910.27
2023-04-15T07:36:13.527Z,99907.73
2023-04-15T07:38:42.636Z,99908.40
2023-04-15T07:41:10.984Z,99905.92
2023-04-15T07:43:39.667Z,99904.79
2023-04-15T07:46:08.184Z,99901.95
2023-04-15T07:48:37.541Z,99904.66
2023-04-15T07:51:06.806Z,99904.77
2023-04-15T07:53:35.908Z,99903.48
2023-04-15T07:56:05.417Z,99905.30
2023-04-15T07:58:33.896Z,99905.77
2023-04-15T08:01:02.250Z,99903.52
2023-04-15T08:03:30.776Z,99906.09
2023-04-15T08:05:59.878Z,99904.69
2023-04-15T08:08:28.257Z,99899.41
2023-04-15T08:10:56.669Z,99903.78
2023-04-15T08:13:25.738Z,99903.13
2023-04-15T08:16:16.888Z,99903.02
2023-04-15T08:18:45.400Z,99904.19
2023-04-15T08:21:14.320Z,99901.96
2023-04-15T08:23:42.699Z,99904.83
2023-04-15T08:26:11.527Z,99903.27
2023-04-15T08:28:41.193Z,99900.98
2023-04-15T08:31:09.699Z,99904.45
2023-04-15T08:33:38.372Z,99902.80
2023-04-15T08:36:07.914Z,99900.34
2023-04-15T08:38:36.827Z,99904.26
2023-04-15T08:41:09.373Z,99906.59
2023-04-15T08:43:40.974Z,99903.48
2023-04-15T08:46:10.581Z,99905.29
2023-04-15T08:48:40.055Z,99906.13
2023-04-15T08:51:08.959Z,99907.12
2023-04-15T08:53:38.459Z,99911.20
2023-04-15T08:56:09.513Z,99910.29
2023-04-15T08:58:38.367Z,99913.77
2023-04-15T09:01:07.371Z,99915.20
2023-04-15T09:03:36.188Z,99911.65
2023-04-15T09:06:05.989Z,99912.17
2023-04-15T09:08:35.214Z,99910.98
2023-04-15T09:11:05.216Z,99910.78
2023-04-15T09:13:33.783Z,99910.64
2023-04-15T09:16:03.925Z,99913.10
2023-04-15T09:18:33.537Z,99916.11
2023-04-15T09:21:08.364Z,99916.38
2023-04-15T09:23:36.961Z,99918.84
2023-04-15T09:26:06.512Z,99918.98
2023-04-15T09:28:42.118Z,99917.14
2023-04-15T09:31:10.706Z,99918.58
2023-04-15T09:33:55.903Z,99922.84
2023-04-15T09:36:24.995Z,99919.28
2023-04-15T09:38:57.170Z,99920.14
2023-04-15T09:41:25.748Z,99919.48
2023-04-15T09:43:54.037Z,99922.79
2023-04-15T09:46:41.850Z,99926.84
2023-04-15T09:49:10.558Z,99928.38
2023-04-15T09:51:39.131Z,99930.02
2023-04-15T09:54:07.661Z,99928.78
2023-04-15T09:56:37.814Z,99931.42
2023-04-15T09:59:06.724Z,99928.77
2023-04-15T10:01:35.587Z,99933.45
2023-04-15T10:04:05.558Z,99930.76
2023-04-15T10:06:34.475Z,99934.08
2023-04-15T10:09:03.042Z,99932.70
2023-04-15T10:11:32.477Z,99931.76
2023-04-15T10:14:01.800Z,99934.11
2023-04-15T10:16:33.332Z,99928.48
2023-04-15T10:19:03.899Z,99932.73
2023-04-15T10:21:32.411Z,99930.36
2023-04-15T10:24:01.867Z,99932.42
2023-04-15T10:26:30.774Z,99933.86
2023-04-15T10:29:00.245Z,99935.51
2023-04-15T10:31:30.089Z,99936.41
2023-04-15T10:34:03.418Z,99936.25
2023-04-15T10:36:31.973Z,99938.40
2023-04-15T10:39:00.769Z,99939.15
2023-04-15T10:41:30.649Z,99939.91
2023-04-15T10:44:02.684Z,99942.07
2023-04-15T10:46:37.989Z,99937.36
2023-04-15T10:49:11.054Z,99937.70
2023-04-15T10:51:42.696Z,99937.00
2023-04-15T10:54:15.154Z,99933.98
2023-04-15T10:56:44.569Z,99935.38
2023-04-15T10:59:13.050Z,99934.52
2023-04-15T11:01:55.808Z,99932.65
2023-04-15T11:04:57.223Z,99934.42
2023-04-15T11:07:39.636Z,99932.03
2023-04-15T11:10:52.747Z,99933.08
2023-04-15T11:13:32.584Z,99937.52
2023-04-15T11:16:02.170Z,99937.98
2023-04-15T11:18:32.521Z,99934.91
2023-04-15T11:21:03.186Z,99935.88
2023-04-15T11:23:34.141Z,99935.30
2023-04-15T11:26:05.237Z,99935.67
2023-04-15T11:28:33.896Z,99933.38
2023-04-15T11:31:10.146Z,99935.95
2023-04-15T11:33:38.990Z,99933.92
2023-04-15T11:36:07.661Z,99935.86
2023-04-15T11:38:37.345Z,99942.48
2023-04-15T11:41:05.725Z,99944.96
2023-04-15T11:43:34.891Z,99945.16
2023-04-15T11:46:04.328Z,99948.17
2023-04-15T11:48:34.042Z,99952.84
2023-04-15T11:51:03.398Z,99956.58
2023-04-15T11:53:40.018Z,99957.23
2023-04-15T11:56:10.566Z,99957.06
2023-04-15T11:58:39.473Z,99959.91
2023-04-15T12:01:08.307Z,99963.74
2023-04-15T12:03:41.999Z,99963.35
2023-04-15T12:06:12.859Z,99968.94
2023-04-15T12:09:00.968Z,99969.64
2023-04-15T12:11:40.566Z,99975.41
2023-04-15T12:14:11.952Z,99981.28
2023-04-15T12:16:48.891Z,99983.02
2023-04-15T12:19:23.610Z,99984.23
2023-04-15T12:21:59.558Z,99987.01
2023-04-15T12:24:29.880Z,99991.27
2023-04-15T12:27:01.507Z,99993.30
2023-04-15T12:29:31.342Z,100000.61
2023-04-15T12:32:06.397Z,100001.10
2023-04-15T12:34:36.707Z,100000.47
2023-04-15T12:37:06.373Z,100000.19
2023-04-15T12:39:38.127Z,100002.48
2023-04-15T12:42:07.116Z,100006.58
2023-04-15T12:44:36.200Z,100007.09
2023-04-15T12:47:04.838Z,100008.30
2023-04-15T12:49:34.132Z,100006.95
2023-04-15T12:52:03.430Z,100007.09
2023-04-15T12:54:33.865Z,100010.54
2023-04-15T12:57:03.929Z,100012.63
2023-04-15T12:59:34.944Z,100016.56
2023-04-15T13:02:05.247Z,100017.16
2023-04-15T13:04:33.896Z,100019.60
2023-04-15T13:07:02.734Z,100024.74
2023-04-15T13:09:31.934Z,100022.35
2023-04-15T13:12:00.773Z,100028.17
2023-04-15T13:14:29.309Z,100027.45
2023-04-15T13:16:59.945Z,100030.36
2023-04-15T13:19:28.407Z,100036.04
2023-04-15T13:21:56.698Z,100042.45
2023-04-15T13:24:25.512Z,100045.97
2023-04-15T13:26:54.406Z,100050.23
2023-04-15T13:29:22.897Z,100053.02
2023-04-15T13:31:51.685Z,100053.05
2023-04-15T13:34:20.123Z,100060.17
2023-04-15T13:36:48.483Z,100057.36
2023-04-15T13:39:16.966Z,100058.51
2023-04-15T13:41:45.543Z,100059.37
2023-04-15T13:44:14.087Z,100059.14
2023-04-15T13:46:42.459Z,100061.52
2023-04-15T13:49:11.027Z,100065.61
2023-04-15T13:51:41.790Z,100063.52
2023-04-15T13:54:10.331Z,100058.71
2023-04-15T13:56:38.734Z,100065.27
2023-04-15T13:59:08.210Z,100063.27
2023-04-15T14:01:36.559Z,100064.80
2023-04-15T14:04:05.470Z,100062.69
2023-04-15T14:06:34.038Z,100057.91
2023-04-15T14:09:02.422Z,100059.27
2023-04-15T14:11:31.155Z,100056.41
2023-04-15T14:13:59.486Z,100061.18
2023-04-15T14:16:28.045Z,100064.89
2023-04-15T14:18:57.400Z,100069.97
2023-04-15T14:21:27.342Z,100064.58
2023-04-15T14:23:55.717Z,100071.91
2023-04-15T14:26:24.439Z,100070.20
2023-04-15T14:28:53.161Z,100063.25
2023-04-15T14:31:21.529Z,100069.14
2023-04-15T14:33:50.035Z,100068.67
2023-04-15T14:36:18.954Z,100075.19
2023-04-15T14:38:48.642Z,100071.21
2023-04-15T14:41:17.533Z,100075.14
2023-04-15T14:43:45.868Z,100076.08
2023-04-15T14:46:14.545Z,100077.66
2023-04-15T14:48:43.101Z,100082.01
2023-04-15T14:51:11.458Z,100082.36
2023-04-15T14:53:39.985Z,100086.38
2023-04-15T14:56:08.712Z,100085.55
2023-04-15T14:58:37.056Z,100089.70
2023-04-15T15:01:05.754Z,100089.08
2023-04-15T15:03:34.632Z,100092.42
2023-04-15T15:06:03.339Z,100099.48
2023-04-15T15:08:31.756Z,100101.48
2023-04-15T15:11:00.228Z,100108.16
2023-04-15T15:13:28.825Z,100110.23
2023-04-15T15:15:57.648Z,100105.80
2023-04-15T15:18:26.272Z,100100.83
2023-04-15T15:20:54.521Z,100105.97
2023-04-15T15:23:25.577Z,100121.46
2023-04-15T15:25:54.215Z,100119.67
2023-04-15T15:28:22.959Z,100114.73
2023-04-15T15:30:51.493Z,100116.61
2023-04-15T15:33:20.568Z,100118.34
2023-04-15T15:35:49.216Z,100111.36
2023-04-15T15:38:17.570Z,100115.97
2023-04-15T15:40:45.968Z,100115.86
2023-04-15T15:43:14.407Z,100114.94
2023-04-15T15:45:42.689Z,100105.89
2023-04-15T15:48:13.413Z,100105.43
2023-04-15T15:50:41.934Z,100109.53
2023-04-15T15:53:11.860Z,100107.13
2023-04-15T15:55:40.315Z,100110.10
2023-04-15T15:58:08.797Z,100111.73
2023-04-15T16:00:37.292Z,100112.75
2023-04-15T16:03:07.722Z,100119.70
2023-04-15T16:05:37.421Z,100123.61
2023-04-15T16:08:06.991Z,100126.30
2023-04-15T16:10:35.506Z,100134.15
2023-04-15T16:13:04.070Z,100136.06
2023-04-15T16:15:33.625Z,100142.33
2023-04-15T16:18:02.055Z,100141.42
2023-04-15T16:20:30.550Z,100142.38
2023-04-15T16:22:59.191Z,100154.84
2023-04-15T16:25:27.631Z,100164.20
2023-04-15T16:28:03.517Z,100165.23
2023-04-15T16:30:41.136Z,100160.46
2023-04-15T16:33:10.229Z,100164.85
2023-04-15T16:35:38.564Z,100165.14
2023-04-15T16:38:06.928Z,100170.15
2023-04-15T16:40:35.250Z,100173.38
2023-04-15T16:43:06.635Z,100182.48
2023-04-15T16:45:35.004Z,100182.69
2023-04-15T16:48:03.439Z,100189.61
2023-04-15T16:50:31.765Z,100193.81
2023-04-15T16:53:00.875Z,100201.96
2023-04-15T16:55:29.172Z,100204.15
2023-04-15T16:58:02.263Z,100208.25
2023-04-15T17:00:32.683Z,100207.94
2023-04-15T17:03:01.717Z,100213.45
2023-04-15T17:05:30.415Z,100213.41
2023-04-15T17:07:58.993Z,100216.26
2023-04-15T17:10:27.419Z,100217.67
2023-04-15T17:12:57.056Z,100224.43
2023-04-15T17:15:25.971Z,100226.48
2023-04-15T17:17:54.503Z,100230.11
2023-04-15T17:20:23.146Z,100230.83
2023-04-15T17:22:51.550Z,100230.36
2023-04-15T17:25:20.391Z,100227.63
2023-04-15T17:27:48.765Z,100231.50
2023-04-15T17:30:17.628Z,100230.61
2023-04-15T17:32:46.061Z,100238.20
2023-04-15T17:35:14.451Z,100237.94
2023-04-15T17:37:42.705Z,100237.77
2023-04-15T17:40:13.221Z,100244.46
2023-04-15T17:42:41.480Z,100243.34
2023-04-15T17:45:11.313Z,100247.47
2023-04-15T17:47:39.830Z,100248.48
2023-04-15T17:50:11.423Z,100255.67
2023-04-15T17:52:40.240Z,100266.60
2023-04-15T17:55:09.475Z,100269.59
2023-04-15T17:57:40.178Z,100277.23
2023-04-15T18:00:11.213Z,100286.79
2023-04-15T18:02:40.169Z,100293.83
2023-04-15T18:05:09.798Z,100296.08
2023-04-15T18:07:38.361Z,100299.70
2023-04-15T18:10:09.274Z,100309.08
2023-04-15T18:12:37.710Z,100312.79
2023-04-15T18:15:09.248Z,100312.83
2023-04-15T18:17:37.737Z,100316.44
2023-04-15T18:20:07.747Z,100319.92
2023-04-15T18:22:36.381Z,100330.17
2023-04-15T18:25:06.544Z,100335.01
2023-04-15T18:27:38.440Z,100338.61
2023-04-15T18:30:09.308Z,100343.06
2023-04-15T18:32:37.752Z,100344.83
2023-04-15T18:35:08.132Z,100345.01
2023-04-15T18:37:36.477Z,100348.30
2023-04-15T18:40:06.993Z,100352.20
2023-04-15T18:42:35.773Z,100353.96
2023-04-15T18:45:04.890Z,100352.71
2023-04-15T18:47:33.258Z,100353.42
2023-04-15T18:50:01.604Z,100352.52
2023-04-15T18:52:30.417Z,100358.23
2023-04-15T18:54:58.771Z,100355.27
2023-04-15T18:57:31.720Z,100354.41
2023-04-15T19:00:04.127Z,100353.86
2023-04-15T19:02:32.737Z,100359.46
2023-04-15T19:05:03.613Z,100363.57
2023-04-15T19:07:32.277Z,100362.02
2023-04-15T19:10:00.750Z,100362.52
2023-04-15T19:12:29.020Z,100360.96
2023-04-15T19:14:57.550Z,100364.84
2023-04-15T19:17:26.022Z,100367.16
2023-04-15T19:19:54.384Z,100368.46
2023-04-15T19:22:23.000Z,100374.05
2023-04-15T19:24:52.421Z,100376.01
2023-04-15T19:27:20.722Z,100374.50
2023-04-15T19:29:49.019Z,100379.64
2023-04-15T19:32:17.725Z,100377.52
2023-04-15T19:34:46.041Z,100384.89
2023-04-15T19:37:15.430Z,100386.55
2023-04-15T19:39:44.269Z,100389.79
2023-04-15T19:42:12.607Z,100395.39
2023-04-15T19:44:42.266Z,100400.44
2023-04-15T19:47:10.866Z,100404.94
2023-04-15T19:49:39.263Z,100406.68
2023-04-15T19:52:07.624Z,100405.87
2023-04-15T19:54:38.000Z,100409.31
2023-04-15T19:57:06.460Z,100412.20
2023-04-15T19:59:35.098Z,100413.91
2023-04-15T20:02:03.650Z,100416.45
2023-04-15T20:04:32.636Z,100420.98
2023-04-15T20:07:01.185Z,100421.09
2023-04-15T20:09:29.746Z,100419.83
2023-04-15T20:12:06.170Z,100420.06
2023-04-15T20:14:46.728Z,100421.08
2023-04-15T20:17:15.757Z,100423.73
2023-04-15T20:19:44.153Z,100423.66
2023-04-15T20:22:12.716Z,100421.46
2023-04-15T20:24:41.079Z,100419.34
2023-04-15T20:27:09.464Z,100421.59
2023-04-15T20:29:38.025Z,100420.89
2023-04-15T20:32:10.668Z,100423.82
2023-04-15T20:34:40.592Z,100425.98
2023-04-15T20:37:10.244Z,100424.63
2023-04-15T20:39:39.568Z,100422.73
2023-04-15T20:42:09.727Z,100420.36
2023-04-15T20:44:38.150Z,100419.54
2023-04-15T20:47:06.546Z,100421.55
2023-04-15T20:49:35.198Z,100427.05
2023-04-15T20:52:03.745Z,100428.02
2023-04-15T20:54:32.067Z,100429.35
2023-04-15T20:57:01.089Z,100429.93
2023-04-15T20:59:29.427Z,100429.69
2023-04-15T21:01:57.879Z,100428.58
2023-04-15T21:04:26.614Z,100428.20
2023-04-15T21:06:55.063Z,100428.70
2023-04-15T21:09:23.366Z,100428.31
2023-04-15T21:14:23.222Z,100431.20
2023-04-15T21:16:51.624Z,100432.19
2023-04-15T21:19:20.106Z,100430.84
2023-04-15T21:21:48.371Z,100434.20
2023-04-15T21:24:16.721Z,100433.30
2023-04-15T21:26:45.881Z,100435.92
2023-04-15T21:29:14.510Z,100433.34
2023-04-15T21:31:43.239Z,100436.64
2023-04-15T21:34:12.349Z,100433.77
2023-04-15T21:36:40.571Z,100435.74
2023-04-15T21:39:09.066Z,100438.48
2023-04-15T21:41:37.934Z,100435.45
2023-04-15T21:44:06.363Z,100437.38
2023-04-15T21:46:35.182Z,100436.98
2023-04-15T21:49:06.212Z,100438.27
2023-04-15T21:51:34.799Z,100435.24
2023-04-15T21:54:03.139Z,100442.20
2023-04-15T21:56:32.124Z,100442.21
2023-04-15T21:59:00.451Z,100444.73
2023-04-15T22:01:28.877Z,100447.98
2023-04-15T22:03:57.482Z,100449.63
2023-04-15T22:06:26.623Z,100449.71
2023-04-15T22:08:57.719Z,100453.86
2023-04-15T22:11:39.899Z,100455.11
2023-04-15T22:14:08.518Z,100464.06
2023-04-15T22:16:36.874Z,100459.39
2023-04-15T22:19:05.969Z,100459.80
2023-04-15T22:21:34.259Z,100463.34
2023-04-15T22:24:32.139Z,100463.01
2023-04-15T22:26:51.100Z,100466.48
2023-04-15T22:29:19.441Z,100468.67
2023-04-15T22:31:47.814Z,100473.40
2023-04-15T22:34:20.756Z,100475.34
2023-04-15T22:36:48.990Z,100476.65
2023-04-15T22:39:17.788Z,100483.19
2023-04-15T22:41:46.768Z,100486.02
2023-04-15T22:44:15.120Z,100482.95
2023-04-15T22:46:43.747Z,100489.68
2023-04-15T22:49:12.159Z,100489.05
2023-04-15T22:51:40.508Z,100494.08
2023-04-15T22:54:08.842Z,100490.96
2023-04-15T22:56:37.245Z,100490.23
2023-04-15T22:59:05.696Z,100494.02
2023-04-15T23:01:34.542Z,100496.30
2023-04-15T23:04:05.566Z,100501.27
2023-04-15T23:06:36.811Z,100498.68
2023-04-15T23:09:05.319Z,100495.92
2023-04-15T23:11:33.586Z,100496.31
2023-04-15T23:14:02.128Z,100495.35
2023-04-15T23:16:30.467Z,100498.17
2023-04-15T23:18:59.074Z,100499.25
2023-04-15T23:21:28.506Z,100495.33
2023-04-15T23:23:56.800Z,100497.02
2023-04-15T23:26:26.699Z,100492.88
2023-04-15T23:28:55.250Z,100498.17
2023-04-15T23:31:23.775Z,100496.13
2023-04-15T23:33:52.102Z,100496.89
2023-04-15T23:36:20.625Z,100501.39
2023-04-15T23:38:49.022Z,100500.52
2023-04-15T23:41:17.312Z,100500.38
2023-04-15T23:43:45.716Z,100506.52
2023-04-15T23:46:14.154Z,100507.13
2023-04-15T23:48:42.704Z,100507.45
2023-04-15T23:51:11.167Z,100509.70
2023-04-15T23:53:39.366Z,100507.13
2023-04-15T23:56:08.317Z,100504.94
2023-04-15T23:58:36.719Z,100506.15
